sensor_id;sensor_type;location;lat;lon;timestamp;pressure;altitude;pressure_sealevel;temperature;humidity
39295;BME280;52361;52.100;5.248;2022-12-07T00:00:27;101761.0;;;5.25;100.0
39295;BME280;52361;52.100;5.248;2022-12-07T00:02:03;101755.0;;;5.27;100.0
39295;BME280;52361;52.100;5.248;2022-12-07T00:03:41;101755.0;;;5.28;100.0
39295;BME280;52361;52.100;5.248;2022-12-07T00:06:53;101752.0;;;5.25;100.0
39295;BME280;52361;52.100;5.248;2022-12-07T00:08:30;101749.0;;;5.25;100.0
39295;BME280;52361;52.100;5.248;2022-12-07T00:10:07;101755.0;;;5.27;100.0
39295;BME280;52361;52.100;5.248;2022-12-07T00:13:25;101745.0;;;5.3;100.0
39295;BME280;52361;52.100;5.248;2022-12-07T00:15:01;101746.0;;;5.42;100.0
39295;BME280;52361;52.100;5.248;2022-12-07T00:16:39;101749.0;;;5.51;100.0
39295;BME280;52361;52.100;5.248;2022-12-07T00:18:15;101753.0;;;5.62;100.0
39295;BME280;52361;52.100;5.248;2022-12-07T00:21:29;101755.0;;;5.6;100.0
39295;BME280;52361;52.100;5.248;2022-12-07T00:23:07;101749.0;;;5.72;100.0
39295;BME280;52361;52.100;5.248;2022-12-07T00:24:43;101743.0;;;5.75;100.0
39295;BME280;52361;52.100;5.248;2022-12-07T00:27:58;101749.0;;;5.78;100.0
39295;BME280;52361;52.100;5.248;2022-12-07T00:29:34;101741.0;;;5.79;100.0
39295;BME280;52361;52.100;5.248;2022-12-07T00:31:12;101741.0;;;5.78;100.0
39295;BME280;52361;52.100;5.248;2022-12-07T00:34:24;101739.0;;;5.87;100.0
39295;BME280;52361;52.100;5.248;2022-12-07T00:36:02;101738.0;;;5.72;100.0
39295;BME280;52361;52.100;5.248;2022-12-07T00:37:39;101730.0;;;5.71;100.0
39295;BME280;52361;52.100;5.248;2022-12-07T00:39:15;101732.0;;;5.73;100.0
39295;BME280;52361;52.100;5.248;2022-12-07T00:42:32;101730.0;;;5.61;100.0
39295;BME280;52361;52.100;5.248;2022-12-07T00:44:08;101728.0;;;5.48;100.0
39295;BME280;52361;52.100;5.248;2022-12-07T00:45:44;101720.0;;;5.48;100.0
39295;BME280;52361;52.100;5.248;2022-12-07T00:48:57;101724.0;;;5.42;100.0
39295;BME280;52361;52.100;5.248;2022-12-07T00:50:33;101720.0;;;5.33;100.0
39295;BME280;52361;52.100;5.248;2022-12-07T00:52:09;101722.0;;;5.29;100.0
39295;BME280;52361;52.100;5.248;2022-12-07T00:53:46;101725.0;;;5.28;100.0
39295;BME280;52361;52.100;5.248;2022-12-07T00:56:59;101725.0;;;5.27;100.0
39295;BME280;52361;52.100;5.248;2022-12-07T00:58:35;101726.0;;;5.24;100.0
39295;BME280;52361;52.100;5.248;2022-12-07T01:00:11;101720.0;;;5.12;100.0
39295;BME280;52361;52.100;5.248;2022-12-07T01:03:24;101722.0;;;5.05;100.0
39295;BME280;52361;52.100;5.248;2022-12-07T01:05:00;101712.0;;;4.91;100.0
39295;BME280;52361;52.100;5.248;2022-12-07T01:06:38;101713.0;;;4.84;100.0
39295;BME280;52361;52.100;5.248;2022-12-07T01:09:50;101716.0;;;4.8;100.0
39295;BME280;52361;52.100;5.248;2022-12-07T01:11:29;101714.0;;;4.78;100.0
39295;BME280;52361;52.100;5.248;2022-12-07T01:13:05;101717.0;;;4.75;100.0
39295;BME280;52361;52.100;5.248;2022-12-07T01:14:42;101721.0;;;4.72;100.0
39295;BME280;52361;52.100;5.248;2022-12-07T01:17:56;101724.0;;;4.68;100.0
39295;BME280;52361;52.100;5.248;2022-12-07T01:19:32;101728.0;;;4.74;100.0
39295;BME280;52361;52.100;5.248;2022-12-07T01:21:11;101723.0;;;4.74;100.0
39295;BME280;52361;52.100;5.248;2022-12-07T01:24:23;101730.0;;;4.78;100.0
39295;BME280;52361;52.100;5.248;2022-12-07T01:26:02;101728.0;;;4.91;100.0
39295;BME280;52361;52.100;5.248;2022-12-07T01:27:39;101728.0;;;4.82;100.0
39295;BME280;52361;52.100;5.248;2022-12-07T01:30:56;101735.0;;;4.72;100.0
39295;BME280;52361;52.100;5.248;2022-12-07T01:32:32;101732.0;;;4.68;100.0
39295;BME280;52361;52.100;5.248;2022-12-07T01:34:10;101726.0;;;4.66;100.0
39295;BME280;52361;52.100;5.248;2022-12-07T01:35:46;101720.0;;;4.79;100.0
39295;BME280;52361;52.100;5.248;2022-12-07T01:38:59;101724.0;;;4.71;100.0
39295;BME280;52361;52.100;5.248;2022-12-07T01:40:37;101721.0;;;4.7;100.0
39295;BME280;52361;52.100;5.248;2022-12-07T01:42:13;101726.0;;;4.66;100.0
39295;BME280;52361;52.100;5.248;2022-12-07T01:45:59;101727.0;;;4.62;100.0
39295;BME280;52361;52.100;5.248;2022-12-07T01:47:39;101731.0;;;4.61;100.0
39295;BME280;52361;52.100;5.248;2022-12-07T01:49:20;101722.0;;;4.54;100.0
39295;BME280;52361;52.100;5.248;2022-12-07T01:52:43;101720.0;;;4.42;100.0
39295;BME280;52361;52.100;5.248;2022-12-07T01:56:02;101723.0;;;4.37;100.0
39295;BME280;52361;52.100;5.248;2022-12-07T01:57:41;101723.0;;;4.37;100.0
39295;BME280;52361;52.100;5.248;2022-12-07T01:59:21;101725.0;;;4.37;100.0
39295;BME280;52361;52.100;5.248;2022-12-07T02:00:59;101727.0;;;4.36;100.0
39295;BME280;52361;52.100;5.248;2022-12-07T02:04:18;101730.0;;;4.3;100.0
39295;BME280;52361;52.100;5.248;2022-12-07T02:05:55;101726.0;;;4.32;100.0
39295;BME280;52361;52.100;5.248;2022-12-07T02:07:35;101724.0;;;4.36;100.0
39295;BME280;52361;52.100;5.248;2022-12-07T02:09:14;101724.0;;;4.41;100.0
39295;BME280;52361;52.100;5.248;2022-12-07T02:12:27;101727.0;;;4.41;100.0
39295;BME280;52361;52.100;5.248;2022-12-07T02:14:04;101724.0;;;4.43;100.0
39295;BME280;52361;52.100;5.248;2022-12-07T02:15:51;101722.0;;;4.53;100.0
39295;BME280;52361;52.100;5.248;2022-12-07T02:17:46;101721.0;;;4.68;100.0
39295;BME280;52361;52.100;5.248;2022-12-07T02:19:50;101712.0;;;4.83;100.0
39295;BME280;52361;52.100;5.248;2022-12-07T02:22:23;101711.0;;;4.84;100.0
39295;BME280;52361;52.100;5.248;2022-12-07T02:24:15;101712.0;;;4.91;100.0
39295;BME280;52361;52.100;5.248;2022-12-07T02:27:06;101717.0;;;5.03;100.0
39295;BME280;52361;52.100;5.248;2022-12-07T02:29:33;101718.0;;;4.95;100.0
39295;BME280;52361;52.100;5.248;2022-12-07T02:31:17;101719.0;;;5.15;100.0
39295;BME280;52361;52.100;5.248;2022-12-07T02:32:59;101719.0;;;5.14;100.0
39295;BME280;52361;52.100;5.248;2022-12-07T02:34:44;101715.0;;;5.31;100.0
39295;BME280;52361;52.100;5.248;2022-12-07T02:36:27;101707.0;;;5.41;100.0
39295;BME280;52361;52.100;5.248;2022-12-07T02:39:55;101705.0;;;5.42;100.0
39295;BME280;52361;52.100;5.248;2022-12-07T02:41:36;101703.0;;;5.42;100.0
39295;BME280;52361;52.100;5.248;2022-12-07T02:43:21;101705.0;;;5.38;100.0
39295;BME280;52361;52.100;5.248;2022-12-07T02:45:00;101707.0;;;5.38;100.0
39295;BME280;52361;52.100;5.248;2022-12-07T02:48:20;101701.0;;;5.42;100.0
39295;BME280;52361;52.100;5.248;2022-12-07T02:49:57;101705.0;;;5.42;100.0
39295;BME280;52361;52.100;5.248;2022-12-07T02:51:34;101705.0;;;5.33;100.0
39295;BME280;52361;52.100;5.248;2022-12-07T02:53:46;101703.0;;;5.3;100.0
39295;BME280;52361;52.100;5.248;2022-12-07T02:55:26;101706.0;;;5.22;100.0
39295;BME280;52361;52.100;5.248;2022-12-07T02:59:05;101702.0;;;5.14;100.0
39295;BME280;52361;52.100;5.248;2022-12-07T03:01:02;101705.0;;;5.13;100.0
39295;BME280;52361;52.100;5.248;2022-12-07T03:02:50;101707.0;;;5.05;100.0
39295;BME280;52361;52.100;5.248;2022-12-07T03:04:36;101709.0;;;5.01;100.0
39295;BME280;52361;52.100;5.248;2022-12-07T03:06:22;101712.0;;;5.05;100.0
39295;BME280;52361;52.100;5.248;2022-12-07T03:08:11;101726.0;;;4.99;100.0
39295;BME280;52361;52.100;5.248;2022-12-07T03:09:53;101728.0;;;5.07;100.0
39295;BME280;52361;52.100;5.248;2022-12-07T03:13:24;101723.0;;;5.07;100.0
39295;BME280;52361;52.100;5.248;2022-12-07T03:15:10;101711.0;;;5.16;100.0
39295;BME280;52361;52.100;5.248;2022-12-07T03:16:52;101697.0;;;5.39;100.0
39295;BME280;52361;52.100;5.248;2022-12-07T03:18:35;101702.0;;;5.37;100.0
39295;BME280;52361;52.100;5.248;2022-12-07T03:20:17;101702.0;;;5.34;100.0
39295;BME280;52361;52.100;5.248;2022-12-07T03:23:40;101700.0;;;5.38;100.0
39295;BME280;52361;52.100;5.248;2022-12-07T03:25:20;101703.0;;;5.41;100.0
39295;BME280;52361;52.100;5.248;2022-12-07T03:27:01;101698.0;;;5.42;100.0
39295;BME280;52361;52.100;5.248;2022-12-07T03:28:52;101700.0;;;5.41;100.0
39295;BME280;52361;52.100;5.248;2022-12-07T03:32:16;101695.0;;;5.38;100.0
39295;BME280;52361;52.100;5.248;2022-12-07T03:34:06;101695.0;;;5.34;100.0
39295;BME280;52361;52.100;5.248;2022-12-07T03:35:53;101699.0;;;5.32;100.0
39295;BME280;52361;52.100;5.248;2022-12-07T03:37:40;101696.0;;;5.27;100.0
39295;BME280;52361;52.100;5.248;2022-12-07T03:39:23;101694.0;;;5.27;100.0
39295;BME280;52361;52.100;5.248;2022-12-07T03:42:46;101695.0;;;5.17;100.0
39295;BME280;52361;52.100;5.248;2022-12-07T03:44:23;101691.0;;;5.07;100.0
39295;BME280;52361;52.100;5.248;2022-12-07T03:46:06;101688.0;;;4.97;100.0
39295;BME280;52361;52.100;5.248;2022-12-07T03:47:58;101685.0;;;4.87;100.0
39295;BME280;52361;52.100;5.248;2022-12-07T03:49:43;101689.0;;;4.86;100.0
39295;BME280;52361;52.100;5.248;2022-12-07T03:53:09;101690.0;;;4.84;100.0
39295;BME280;52361;52.100;5.248;2022-12-07T03:54:52;101686.0;;;4.89;100.0
39295;BME280;52361;52.100;5.248;2022-12-07T03:56:32;101695.0;;;4.95;100.0
39295;BME280;52361;52.100;5.248;2022-12-07T03:58:13;101694.0;;;4.89;100.0
39295;BME280;52361;52.100;5.248;2022-12-07T04:01:31;101693.0;;;4.76;100.0
39295;BME280;52361;52.100;5.248;2022-12-07T04:03:07;101694.0;;;4.79;100.0
39295;BME280;52361;52.100;5.248;2022-12-07T04:04:45;101693.0;;;4.72;100.0
39295;BME280;52361;52.100;5.248;2022-12-07T04:06:21;101694.0;;;4.7;100.0
39295;BME280;52361;52.100;5.248;2022-12-07T04:09:33;101689.0;;;4.54;100.0
39295;BME280;52361;52.100;5.248;2022-12-07T04:11:09;101687.0;;;4.47;100.0
39295;BME280;52361;52.100;5.248;2022-12-07T04:12:47;101683.0;;;4.49;100.0
39295;BME280;52361;52.100;5.248;2022-12-07T04:15:59;101680.0;;;4.45;100.0
39295;BME280;52361;52.100;5.248;2022-12-07T04:17:35;101687.0;;;4.41;100.0
39295;BME280;52361;52.100;5.248;2022-12-07T04:19:13;101683.0;;;4.42;100.0
39295;BME280;52361;52.100;5.248;2022-12-07T04:22:26;101677.0;;;4.43;100.0
39295;BME280;52361;52.100;5.248;2022-12-07T04:24:02;101678.0;;;4.45;100.0
39295;BME280;52361;52.100;5.248;2022-12-07T04:25:39;101680.0;;;4.37;100.0
39295;BME280;52361;52.100;5.248;2022-12-07T04:27:16;101678.0;;;4.32;100.0
39295;BME280;52361;52.100;5.248;2022-12-07T04:30:28;101684.0;;;4.3;100.0
39295;BME280;52361;52.100;5.248;2022-12-07T04:32:05;101686.0;;;4.28;100.0
39295;BME280;52361;52.100;5.248;2022-12-07T04:33:41;101683.0;;;4.25;100.0
39295;BME280;52361;52.100;5.248;2022-12-07T04:36:53;101682.0;;;4.24;100.0
39295;BME280;52361;52.100;5.248;2022-12-07T04:38:29;101682.0;;;4.17;100.0
39295;BME280;52361;52.100;5.248;2022-12-07T04:40:07;101684.0;;;4.21;100.0
39295;BME280;52361;52.100;5.248;2022-12-07T04:43:21;101698.0;;;4.22;100.0
39295;BME280;52361;52.100;5.248;2022-12-07T04:44:57;101706.0;;;4.36;100.0
39295;BME280;52361;52.100;5.248;2022-12-07T04:46:33;101701.0;;;4.45;100.0
39295;BME280;52361;52.100;5.248;2022-12-07T04:48:09;101698.0;;;4.53;100.0
39295;BME280;52361;52.100;5.248;2022-12-07T04:51:23;101688.0;;;4.75;100.0
39295;BME280;52361;52.100;5.248;2022-12-07T04:53:01;101680.0;;;4.91;100.0
39295;BME280;52361;52.100;5.248;2022-12-07T04:54:37;101673.0;;;4.87;100.0
39295;BME280;52361;52.100;5.248;2022-12-07T04:57:50;101670.0;;;4.78;100.0
39295;BME280;52361;52.100;5.248;2022-12-07T04:59:26;101670.0;;;4.78;100.0
39295;BME280;52361;52.100;5.248;2022-12-07T05:01:03;101669.0;;;4.68;100.0
39295;BME280;52361;52.100;5.248;2022-12-07T05:04:16;101666.0;;;4.7;100.0
39295;BME280;52361;52.100;5.248;2022-12-07T05:05:52;101663.0;;;4.68;100.0
39295;BME280;52361;52.100;5.248;2022-12-07T05:07:28;101666.0;;;4.79;100.0
39295;BME280;52361;52.100;5.248;2022-12-07T05:09:05;101665.0;;;4.71;100.0
39295;BME280;52361;52.100;5.248;2022-12-07T05:12:18;101667.0;;;4.66;100.0
39295;BME280;52361;52.100;5.248;2022-12-07T05:13:54;101664.0;;;4.53;100.0
39295;BME280;52361;52.100;5.248;2022-12-07T05:15:31;101664.0;;;4.34;100.0
39295;BME280;52361;52.100;5.248;2022-12-07T05:18:43;101661.0;;;4.33;100.0
39295;BME280;52361;52.100;5.248;2022-12-07T05:20:20;101661.0;;;4.29;100.0
39295;BME280;52361;52.100;5.248;2022-12-07T05:21:56;101662.0;;;4.26;100.0
39295;BME280;52361;52.100;5.248;2022-12-07T05:25:08;101666.0;;;4.24;100.0
39295;BME280;52361;52.100;5.248;2022-12-07T05:26:45;101665.0;;;4.13;100.0
39295;BME280;52361;52.100;5.248;2022-12-07T05:28:22;101662.0;;;4.08;100.0
39295;BME280;52361;52.100;5.248;2022-12-07T05:29:58;101665.0;;;4.09;100.0
39295;BME280;52361;52.100;5.248;2022-12-07T05:33:10;101662.0;;;4.08;100.0
39295;BME280;52361;52.100;5.248;2022-12-07T05:34:47;101661.0;;;4.07;100.0
39295;BME280;52361;52.100;5.248;2022-12-07T05:36:23;101660.0;;;4.08;100.0
39295;BME280;52361;52.100;5.248;2022-12-07T05:39:34;101660.0;;;3.99;100.0
39295;BME280;52361;52.100;5.248;2022-12-07T05:42:12;101661.0;;;3.94;100.0
39295;BME280;52361;52.100;5.248;2022-12-07T05:43:48;101659.0;;;3.95;100.0
39295;BME280;52361;52.100;5.248;2022-12-07T05:45:24;101662.0;;;3.94;100.0
39295;BME280;52361;52.100;5.248;2022-12-07T05:47:00;101658.0;;;3.93;100.0
39295;BME280;52361;52.100;5.248;2022-12-07T05:50:12;101665.0;;;3.89;100.0
39295;BME280;52361;52.100;5.248;2022-12-07T05:51:48;101666.0;;;3.83;100.0
39295;BME280;52361;52.100;5.248;2022-12-07T05:53:25;101667.0;;;3.81;100.0
39295;BME280;52361;52.100;5.248;2022-12-07T05:55:01;101666.0;;;3.76;100.0
39295;BME280;52361;52.100;5.248;2022-12-07T05:59:30;101664.0;;;3.78;100.0
39295;BME280;52361;52.100;5.248;2022-12-07T06:01:06;101666.0;;;3.75;100.0
39295;BME280;52361;52.100;5.248;2022-12-07T06:02:43;101664.0;;;3.76;100.0
39295;BME280;52361;52.100;5.248;2022-12-07T06:04:19;101663.0;;;3.89;100.0
39295;BME280;52361;52.100;5.248;2022-12-07T06:05:56;101665.0;;;3.83;100.0
39295;BME280;52361;52.100;5.248;2022-12-07T06:07:32;101663.0;;;3.78;100.0
39295;BME280;52361;52.100;5.248;2022-12-07T06:10:47;101662.0;;;3.72;100.0
39295;BME280;52361;52.100;5.248;2022-12-07T06:12:39;101666.0;;;3.73;100.0
39295;BME280;52361;52.100;5.248;2022-12-07T06:14:16;101666.0;;;3.73;100.0
39295;BME280;52361;52.100;5.248;2022-12-07T06:17:28;101664.0;;;3.65;100.0
39295;BME280;52361;52.100;5.248;2022-12-07T06:19:04;101666.0;;;3.6;100.0
39295;BME280;52361;52.100;5.248;2022-12-07T06:20:40;101662.0;;;3.6;100.0
39295;BME280;52361;52.100;5.248;2022-12-07T06:22:17;101665.0;;;3.58;100.0
39295;BME280;52361;52.100;5.248;2022-12-07T06:25:30;101666.0;;;3.58;100.0
39295;BME280;52361;52.100;5.248;2022-12-07T06:27:06;101664.0;;;3.64;100.0
39295;BME280;52361;52.100;5.248;2022-12-07T06:28:43;101664.0;;;3.59;100.0
39295;BME280;52361;52.100;5.248;2022-12-07T06:31:56;101667.0;;;3.52;100.0
39295;BME280;52361;52.100;5.248;2022-12-07T06:33:32;101669.0;;;3.57;100.0
39295;BME280;52361;52.100;5.248;2022-12-07T06:35:08;101668.0;;;3.62;100.0
39295;BME280;52361;52.100;5.248;2022-12-07T06:38:23;101674.0;;;3.63;100.0
39295;BME280;52361;52.100;5.248;2022-12-07T06:39:59;101670.0;;;3.71;100.0
39295;BME280;52361;52.100;5.248;2022-12-07T06:41:37;101675.0;;;3.74;100.0
39295;BME280;52361;52.100;5.248;2022-12-07T06:43:13;101673.0;;;3.66;100.0
39295;BME280;52361;52.100;5.248;2022-12-07T06:46:26;101676.0;;;3.59;100.0
39295;BME280;52361;52.100;5.248;2022-12-07T06:48:02;101665.0;;;3.54;100.0
39295;BME280;52361;52.100;5.248;2022-12-07T06:49:39;101664.0;;;3.55;100.0
39295;BME280;52361;52.100;5.248;2022-12-07T06:52:52;101672.0;;;3.52;100.0
39295;BME280;52361;52.100;5.248;2022-12-07T06:54:30;101667.0;;;3.71;100.0
39295;BME280;52361;52.100;5.248;2022-12-07T06:56:06;101668.0;;;3.72;100.0
39295;BME280;52361;52.100;5.248;2022-12-07T06:59:20;101665.0;;;3.73;100.0
39295;BME280;52361;52.100;5.248;2022-12-07T07:00:57;101668.0;;;3.8;100.0
39295;BME280;52361;52.100;5.248;2022-12-07T07:02:33;101664.0;;;3.78;100.0
39295;BME280;52361;52.100;5.248;2022-12-07T07:04:09;101665.0;;;3.75;100.0
39295;BME280;52361;52.100;5.248;2022-12-07T07:07:21;101673.0;;;3.76;100.0
39295;BME280;52361;52.100;5.248;2022-12-07T07:08:58;101669.0;;;3.82;100.0
39295;BME280;52361;52.100;5.248;2022-12-07T07:10:34;101666.0;;;3.78;100.0
39295;BME280;52361;52.100;5.248;2022-12-07T07:13:47;101668.0;;;3.72;100.0
39295;BME280;52361;52.100;5.248;2022-12-07T07:15:23;101670.0;;;3.74;100.0
39295;BME280;52361;52.100;5.248;2022-12-07T07:16:59;101665.0;;;3.81;100.0
39295;BME280;52361;52.100;5.248;2022-12-07T07:20:13;101656.0;;;3.88;100.0
39295;BME280;52361;52.100;5.248;2022-12-07T07:21:49;101661.0;;;3.93;100.0
39295;BME280;52361;52.100;5.248;2022-12-07T07:23:25;101666.0;;;3.94;100.0
39295;BME280;52361;52.100;5.248;2022-12-07T07:25:01;101668.0;;;3.98;100.0
39295;BME280;52361;52.100;5.248;2022-12-07T07:28:16;101669.0;;;3.95;100.0
39295;BME280;52361;52.100;5.248;2022-12-07T07:29:52;101666.0;;;4.03;100.0
39295;BME280;52361;52.100;5.248;2022-12-07T07:31:28;101664.0;;;3.99;100.0
39295;BME280;52361;52.100;5.248;2022-12-07T07:34:42;101667.0;;;3.94;100.0
39295;BME280;52361;52.100;5.248;2022-12-07T07:36:18;101667.0;;;3.87;100.0
39295;BME280;52361;52.100;5.248;2022-12-07T07:37:54;101670.0;;;3.75;100.0
39295;BME280;52361;52.100;5.248;2022-12-07T07:41:07;101670.0;;;3.79;100.0
39295;BME280;52361;52.100;5.248;2022-12-07T07:42:43;101669.0;;;3.74;100.0
39295;BME280;52361;52.100;5.248;2022-12-07T07:44:19;101669.0;;;3.71;100.0
39295;BME280;52361;52.100;5.248;2022-12-07T07:45:55;101672.0;;;3.71;100.0
39295;BME280;52361;52.100;5.248;2022-12-07T07:49:08;101673.0;;;3.75;100.0
39295;BME280;52361;52.100;5.248;2022-12-07T07:50:44;101676.0;;;3.74;100.0
39295;BME280;52361;52.100;5.248;2022-12-07T07:52:20;101678.0;;;3.64;100.0
39295;BME280;52361;52.100;5.248;2022-12-07T07:55:33;101674.0;;;3.54;100.0
39295;BME280;52361;52.100;5.248;2022-12-07T07:57:10;101677.0;;;3.49;100.0
39295;BME280;52361;52.100;5.248;2022-12-07T07:58:46;101680.0;;;3.5;100.0
39295;BME280;52361;52.100;5.248;2022-12-07T08:01:58;101672.0;;;3.47;100.0
39295;BME280;52361;52.100;5.248;2022-12-07T08:03:34;101671.0;;;3.42;100.0
39295;BME280;52361;52.100;5.248;2022-12-07T08:05:12;101672.0;;;3.39;100.0
39295;BME280;52361;52.100;5.248;2022-12-07T08:06:48;101674.0;;;3.38;100.0
39295;BME280;52361;52.100;5.248;2022-12-07T08:10:01;101676.0;;;3.39;100.0
39295;BME280;52361;52.100;5.248;2022-12-07T08:11:38;101678.0;;;3.38;100.0
39295;BME280;52361;52.100;5.248;2022-12-07T08:13:15;101677.0;;;3.35;100.0
39295;BME280;52361;52.100;5.248;2022-12-07T08:16:29;101681.0;;;3.32;100.0
39295;BME280;52361;52.100;5.248;2022-12-07T08:19:42;101683.0;;;3.35;100.0
39295;BME280;52361;52.100;5.248;2022-12-07T08:22:54;101692.0;;;3.45;100.0
39295;BME280;52361;52.100;5.248;2022-12-07T08:24:33;101697.0;;;3.66;100.0
39295;BME280;52361;52.100;5.248;2022-12-07T08:26:11;101703.0;;;3.82;100.0
39295;BME280;52361;52.100;5.248;2022-12-07T08:27:48;101709.0;;;3.95;100.0
39295;BME280;52361;52.100;5.248;2022-12-07T08:31:03;101708.0;;;4.03;100.0
39295;BME280;52361;52.100;5.248;2022-12-07T08:32:39;101705.0;;;4.17;100.0
39295;BME280;52361;52.100;5.248;2022-12-07T08:34:16;101706.0;;;4.57;100.0
39295;BME280;52361;52.100;5.248;2022-12-07T08:37:28;101705.0;;;4.78;100.0
39295;BME280;52361;52.100;5.248;2022-12-07T08:39:04;101689.0;;;5.01;100.0
39295;BME280;52361;52.100;5.248;2022-12-07T08:40:40;101693.0;;;5.09;100.0
39295;BME280;52361;52.100;5.248;2022-12-07T08:43:53;101693.0;;;5.16;100.0
39295;BME280;52361;52.100;5.248;2022-12-07T08:45:32;101696.0;;;5.32;100.0
39295;BME280;52361;52.100;5.248;2022-12-07T08:47:09;101694.0;;;5.33;100.0
39295;BME280;52361;52.100;5.248;2022-12-07T08:48:49;101694.0;;;5.36;100.0
39295;BME280;52361;52.100;5.248;2022-12-07T08:52:07;101691.0;;;5.42;100.0
39295;BME280;52361;52.100;5.248;2022-12-07T08:53:43;101689.0;;;5.53;100.0
39295;BME280;52361;52.100;5.248;2022-12-07T08:55:20;101691.0;;;5.59;100.0
39295;BME280;52361;52.100;5.248;2022-12-07T08:58:34;101692.0;;;5.55;100.0
39295;BME280;52361;52.100;5.248;2022-12-07T09:00:13;101695.0;;;5.65;100.0
39295;BME280;52361;52.100;5.248;2022-12-07T09:01:50;101695.0;;;5.63;100.0
39295;BME280;52361;52.100;5.248;2022-12-07T09:03:26;101696.0;;;5.74;100.0
39295;BME280;52361;52.100;5.248;2022-12-07T09:06:40;101696.0;;;5.76;100.0
39295;BME280;52361;52.100;5.248;2022-12-07T09:08:18;101696.0;;;5.8;100.0
39295;BME280;52361;52.100;5.248;2022-12-07T09:09:55;101702.0;;;5.87;100.0
39295;BME280;52361;52.100;5.248;2022-12-07T09:13:08;101699.0;;;5.99;100.0
39295;BME280;52361;52.100;5.248;2022-12-07T09:14:44;101697.0;;;6.01;100.0
39295;BME280;52361;52.100;5.248;2022-12-07T09:16:20;101696.0;;;6.14;100.0
39295;BME280;52361;52.100;5.248;2022-12-07T09:17:57;101696.0;;;6.13;100.0
39295;BME280;52361;52.100;5.248;2022-12-07T09:21:09;101690.0;;;6.29;100.0
39295;BME280;52361;52.100;5.248;2022-12-07T09:22:45;101686.0;;;6.36;100.0
39295;BME280;52361;52.100;5.248;2022-12-07T09:24:22;101686.0;;;6.37;100.0
39295;BME280;52361;52.100;5.248;2022-12-07T09:27:36;101680.0;;;6.38;100.0
39295;BME280;52361;52.100;5.248;2022-12-07T09:29:12;101685.0;;;6.37;100.0
39295;BME280;52361;52.100;5.248;2022-12-07T09:30:49;101690.0;;;6.36;100.0
39295;BME280;52361;52.100;5.248;2022-12-07T09:34:01;101690.0;;;6.35;100.0
39295;BME280;52361;52.100;5.248;2022-12-07T09:35:37;101684.0;;;6.32;100.0
39295;BME280;52361;52.100;5.248;2022-12-07T09:37:14;101689.0;;;6.32;100.0
39295;BME280;52361;52.100;5.248;2022-12-07T09:38:50;101687.0;;;6.25;100.0
39295;BME280;52361;52.100;5.248;2022-12-07T09:42:05;101685.0;;;6.26;100.0
39295;BME280;52361;52.100;5.248;2022-12-07T09:43:42;101680.0;;;6.35;100.0
39295;BME280;52361;52.100;5.248;2022-12-07T09:45:22;101684.0;;;6.54;100.0
39295;BME280;52361;52.100;5.248;2022-12-07T09:48:37;101686.0;;;6.81;100.0
39295;BME280;52361;52.100;5.248;2022-12-07T09:50:16;101684.0;;;7.07;100.0
39295;BME280;52361;52.100;5.248;2022-12-07T09:52:15;101682.0;;;7.21;100.0
39295;BME280;52361;52.100;5.248;2022-12-07T09:53:56;101685.0;;;7.26;100.0
39295;BME280;52361;52.100;5.248;2022-12-07T09:55:42;101689.0;;;7.12;100.0
39295;BME280;52361;52.100;5.248;2022-12-07T09:59:12;101684.0;;;7.03;100.0
39295;BME280;52361;52.100;5.248;2022-12-07T10:00:50;101682.0;;;7.13;100.0
39295;BME280;52361;52.100;5.248;2022-12-07T10:02:35;101685.0;;;7.26;100.0
39295;BME280;52361;52.100;5.248;2022-12-07T10:04:15;101686.0;;;7.37;100.0
39295;BME280;52361;52.100;5.248;2022-12-07T10:07:31;101680.0;;;7.24;100.0
39295;BME280;52361;52.100;5.248;2022-12-07T10:09:10;101683.0;;;7.34;100.0
39295;BME280;52361;52.100;5.248;2022-12-07T10:10:51;101680.0;;;7.29;100.0
39295;BME280;52361;52.100;5.248;2022-12-07T10:12:28;101672.0;;;7.46;100.0
39295;BME280;52361;52.100;5.248;2022-12-07T10:15:52;101663.0;;;7.48;100.0
39295;BME280;52361;52.100;5.248;2022-12-07T10:17:32;101655.0;;;7.45;100.0
39295;BME280;52361;52.100;5.248;2022-12-07T10:19:22;101658.0;;;7.5;100.0
39295;BME280;52361;52.100;5.248;2022-12-07T10:21:03;101653.0;;;7.55;100.0
39295;BME280;52361;52.100;5.248;2022-12-07T10:24:30;101652.0;;;7.5;100.0
39295;BME280;52361;52.100;5.248;2022-12-07T10:28:34;101653.0;;;7.46;100.0
39295;BME280;52361;52.100;5.248;2022-12-07T10:30:14;101651.0;;;7.47;100.0
39295;BME280;52361;52.100;5.248;2022-12-07T10:32:00;101650.0;;;7.4;100.0
39295;BME280;52361;52.100;5.248;2022-12-07T10:33:49;101646.0;;;7.53;100.0
39295;BME280;52361;52.100;5.248;2022-12-07T10:35:28;101645.0;;;7.58;100.0
39295;BME280;52361;52.100;5.248;2022-12-07T10:39:00;101642.0;;;7.61;100.0
39295;BME280;52361;52.100;5.248;2022-12-07T10:40:38;101644.0;;;7.71;100.0
39295;BME280;52361;52.100;5.248;2022-12-07T10:42:18;101637.0;;;7.77;100.0
39295;BME280;52361;52.100;5.248;2022-12-07T10:43:56;101633.0;;;7.92;100.0
39295;BME280;52361;52.100;5.248;2022-12-07T10:47:27;101632.0;;;8.11;100.0
39295;BME280;52361;52.100;5.248;2022-12-07T10:49:23;101632.0;;;8.36;100.0
39295;BME280;52361;52.100;5.248;2022-12-07T10:52:33;101630.0;;;8.52;100.0
39295;BME280;52361;52.100;5.248;2022-12-07T10:54:27;101627.0;;;8.65;100.0
39295;BME280;52361;52.100;5.248;2022-12-07T10:58:32;101628.0;;;8.67;100.0
39295;BME280;52361;52.100;5.248;2022-12-07T11:02:06;101630.0;;;8.69;100.0
39295;BME280;52361;52.100;5.248;2022-12-07T11:04:13;101634.0;;;8.77;100.0
39295;BME280;52361;52.100;5.248;2022-12-07T11:05:56;101630.0;;;8.78;100.0
39295;BME280;52361;52.100;5.248;2022-12-07T11:07:47;101634.0;;;8.65;100.0
39295;BME280;52361;52.100;5.248;2022-12-07T11:09:47;101627.0;;;8.56;100.0
39295;BME280;52361;52.100;5.248;2022-12-07T11:11:48;101623.0;;;8.35;100.0
39295;BME280;52361;52.100;5.248;2022-12-07T11:13:36;101619.0;;;8.39;100.0
39295;BME280;52361;52.100;5.248;2022-12-07T11:15:24;101617.0;;;8.48;100.0
39295;BME280;52361;52.100;5.248;2022-12-07T11:18:59;101613.0;;;8.52;100.0
39295;BME280;52361;52.100;5.248;2022-12-07T11:20:44;101612.0;;;8.43;100.0
39295;BME280;52361;52.100;5.248;2022-12-07T11:22:33;101614.0;;;8.4;100.0
39295;BME280;52361;52.100;5.248;2022-12-07T11:24:17;101609.0;;;8.31;100.0